sensor_id;sensor_type;location;lat;lon;timestamp;P1;durP1;ratioP1;P2;durP2;ratioP2
22223;SDS011;11281;52.194;21.006;2023-07-28T00:00:58;4.97;;;2.97;;
22223;SDS011;11281;52.194;21.006;2023-07-28T00:05:00;4.00;;;2.88;;
22223;SDS011;11281;52.194;21.006;2023-07-28T00:09:02;9.38;;;3.60;;
22223;SDS011;11281;52.194;21.006;2023-07-28T00:13:04;4.35;;;3.03;;
22223;SDS011;11281;52.194;21.006;2023-07-28T00:17:06;9.70;;;3.47;;
22223;SDS011;11281;52.194;21.006;2023-07-28T00:21:07;4.00;;;3.45;;
22223;SDS011;11281;52.194;21.006;2023-07-28T00:25:09;4.38;;;3.50;;
22223;SDS011;11281;52.194;21.006;2023-07-28T00:29:11;4.40;;;3.95;;
22223;SDS011;11281;52.194;21.006;2023-07-28T00:33:13;4.13;;;3.13;;
22223;SDS011;11281;52.194;21.006;2023-07-28T00:37:15;4.85;;;3.67;;
22223;SDS011;11281;52.194;21.006;2023-07-28T00:41:17;4.25;;;3.47;;
22223;SDS011;11281;52.194;21.006;2023-07-28T00:45:19;6.55;;;3.55;;
22223;SDS011;11281;52.194;21.006;2023-07-28T00:49:22;5.85;;;3.80;;
22223;SDS011;11281;52.194;21.006;2023-07-28T00:53:23;6.55;;;3.83;;
22223;SDS011;11281;52.194;21.006;2023-07-28T00:57:25;7.35;;;3.60;;
22223;SDS011;11281;52.194;21.006;2023-07-28T01:01:27;4.25;;;3.20;;
22223;SDS011;11281;52.194;21.006;2023-07-28T01:05:32;7.60;;;4.00;;
22223;SDS011;11281;52.194;21.006;2023-07-28T01:09:47;4.63;;;3.42;;
22223;SDS011;11281;52.194;21.006;2023-07-28T01:14:06;5.85;;;3.67;;
22223;SDS011;11281;52.194;21.006;2023-07-28T01:18:08;5.22;;;3.20;;
22223;SDS011;11281;52.194;21.006;2023-07-28T01:22:14;5.28;;;3.90;;
22223;SDS011;11281;52.194;21.006;2023-07-28T01:26:34;4.93;;;3.97;;
22223;SDS011;11281;52.194;21.006;2023-07-28T01:30:40;5.07;;;3.50;;
22223;SDS011;11281;52.194;21.006;2023-07-28T01:34:41;4.28;;;3.50;;
22223;SDS011;11281;52.194;21.006;2023-07-28T01:38:43;5.95;;;3.80;;
22223;SDS011;11281;52.194;21.006;2023-07-28T01:42:45;5.80;;;3.60;;
22223;SDS011;11281;52.194;21.006;2023-07-28T01:46:46;7.78;;;3.83;;
22223;SDS011;11281;52.194;21.006;2023-07-28T01:50:48;4.65;;;3.50;;
22223;SDS011;11281;52.194;21.006;2023-07-28T01:54:49;4.80;;;3.35;;
22223;SDS011;11281;52.194;21.006;2023-07-28T01:58:51;7.32;;;3.90;;
22223;SDS011;11281;52.194;21.006;2023-07-28T02:02:53;5.28;;;3.90;;
22223;SDS011;11281;52.194;21.006;2023-07-28T02:06:55;6.22;;;3.90;;
22223;SDS011;11281;52.194;21.006;2023-07-28T02:10:57;3.88;;;3.38;;
22223;SDS011;11281;52.194;21.006;2023-07-28T02:14:59;4.90;;;3.47;;
22223;SDS011;11281;52.194;21.006;2023-07-28T02:19:01;7.32;;;4.50;;
22223;SDS011;11281;52.194;21.006;2023-07-28T02:23:03;5.30;;;3.42;;
22223;SDS011;11281;52.194;21.006;2023-07-28T02:27:04;6.93;;;3.80;;
22223;SDS011;11281;52.194;21.006;2023-07-28T02:31:06;6.10;;;4.03;;
22223;SDS011;11281;52.194;21.006;2023-07-28T02:35:08;5.32;;;4.07;;
22223;SDS011;11281;52.194;21.006;2023-07-28T02:39:11;6.63;;;4.20;;
22223;SDS011;11281;52.194;21.006;2023-07-28T02:43:13;7.13;;;4.00;;
22223;SDS011;11281;52.194;21.006;2023-07-28T02:47:14;5.68;;;3.90;;
22223;SDS011;11281;52.194;21.006;2023-07-28T02:51:16;6.70;;;3.72;;
22223;SDS011;11281;52.194;21.006;2023-07-28T02:55:18;4.95;;;3.67;;
22223;SDS011;11281;52.194;21.006;2023-07-28T02:59:20;5.10;;;3.92;;
22223;SDS011;11281;52.194;21.006;2023-07-28T03:03:24;5.85;;;3.90;;
22223;SDS011;11281;52.194;21.006;2023-07-28T03:07:26;5.15;;;4.00;;
22223;SDS011;11281;52.194;21.006;2023-07-28T03:11:27;6.07;;;3.80;;
22223;SDS011;11281;52.194;21.006;2023-07-28T03:15:29;5.50;;;4.00;;
22223;SDS011;11281;52.194;21.006;2023-07-28T03:19:31;6.22;;;3.97;;
22223;SDS011;11281;52.194;21.006;2023-07-28T03:23:32;6.72;;;3.90;;
22223;SDS011;11281;52.194;21.006;2023-07-28T03:27:34;4.72;;;4.25;;
22223;SDS011;11281;52.194;21.006;2023-07-28T03:31:36;5.15;;;4.00;;
22223;SDS011;11281;52.194;21.006;2023-07-28T03:35:38;5.03;;;3.92;;
22223;SDS011;11281;52.194;21.006;2023-07-28T03:39:40;9.52;;;4.20;;
22223;SDS011;11281;52.194;21.006;2023-07-28T03:43:41;6.18;;;4.53;;
22223;SDS011;11281;52.194;21.006;2023-07-28T03:47:43;7.13;;;3.75;;
22223;SDS011;11281;52.194;21.006;2023-07-28T03:51:45;7.25;;;4.18;;
22223;SDS011;11281;52.194;21.006;2023-07-28T03:55:47;6.70;;;4.13;;
22223;SDS011;11281;52.194;21.006;2023-07-28T03:59:49;4.93;;;4.13;;
22223;SDS011;11281;52.194;21.006;2023-07-28T04:03:50;5.93;;;3.72;;
22223;SDS011;11281;52.194;21.006;2023-07-28T04:07:53;5.72;;;3.75;;
22223;SDS011;11281;52.194;21.006;2023-07-28T04:11:55;5.65;;;4.30;;
22223;SDS011;11281;52.194;21.006;2023-07-28T04:15:57;8.45;;;3.75;;
22223;SDS011;11281;52.194;21.006;2023-07-28T04:19:59;7.22;;;3.92;;
22223;SDS011;11281;52.194;21.006;2023-07-28T04:24:00;6.38;;;3.67;;
22223;SDS011;11281;52.194;21.006;2023-07-28T04:28:02;6.00;;;3.60;;
22223;SDS011;11281;52.194;21.006;2023-07-28T04:32:04;5.60;;;3.83;;
22223;SDS011;11281;52.194;21.006;2023-07-28T04:36:06;5.60;;;3.78;;
22223;SDS011;11281;52.194;21.006;2023-07-28T04:40:08;8.10;;;3.92;;
22223;SDS011;11281;52.194;21.006;2023-07-28T04:44:10;5.38;;;3.80;;
22223;SDS011;11281;52.194;21.006;2023-07-28T04:48:12;4.95;;;3.72;;
22223;SDS011;11281;52.194;21.006;2023-07-28T04:52:14;4.78;;;3.50;;
22223;SDS011;11281;52.194;21.006;2023-07-28T04:56:15;5.72;;;4.13;;
22223;SDS011;11281;52.194;21.006;2023-07-28T05:00:17;4.68;;;4.07;;
22223;SDS011;11281;52.194;21.006;2023-07-28T05:04:19;9.75;;;3.63;;
22223;SDS011;11281;52.194;21.006;2023-07-28T05:08:21;5.90;;;3.80;;
22223;SDS011;11281;52.194;21.006;2023-07-28T05:12:23;6.15;;;3.80;;
22223;SDS011;11281;52.194;21.006;2023-07-28T05:16:25;6.95;;;3.65;;
22223;SDS011;11281;52.194;21.006;2023-07-28T05:20:27;7.00;;;3.80;;
22223;SDS011;11281;52.194;21.006;2023-07-28T05:24:29;7.60;;;4.50;;
22223;SDS011;11281;52.194;21.006;2023-07-28T05:28:34;6.68;;;3.53;;
22223;SDS011;11281;52.194;21.006;2023-07-28T05:32:37;5.65;;;3.97;;
22223;SDS011;11281;52.194;21.006;2023-07-28T05:36:39;7.32;;;3.53;;
22223;SDS011;11281;52.194;21.006;2023-07-28T05:40:41;5.15;;;3.92;;
22223;SDS011;11281;52.194;21.006;2023-07-28T05:44:42;6.00;;;3.58;;
22223;SDS011;11281;52.194;21.006;2023-07-28T05:48:45;5.43;;;3.78;;
22223;SDS011;11281;52.194;21.006;2023-07-28T05:52:47;6.22;;;4.10;;
22223;SDS011;11281;52.194;21.006;2023-07-28T05:56:49;5.25;;;3.53;;
22223;SDS011;11281;52.194;21.006;2023-07-28T06:00:50;5.40;;;3.67;;
22223;SDS011;11281;52.194;21.006;2023-07-28T06:04:52;9.68;;;3.92;;
22223;SDS011;11281;52.194;21.006;2023-07-28T06:08:54;7.25;;;3.53;;
22223;SDS011;11281;52.194;21.006;2023-07-28T06:12:56;4.53;;;3.20;;
22223;SDS011;11281;52.194;21.006;2023-07-28T06:16:57;5.40;;;3.63;;
22223;SDS011;11281;52.194;21.006;2023-07-28T06:20:58;3.42;;;3.10;;
22223;SDS011;11281;52.194;21.006;2023-07-28T06:25:00;6.20;;;4.28;;
22223;SDS011;11281;52.194;21.006;2023-07-28T06:29:02;5.20;;;3.88;;
22223;SDS011;11281;52.194;21.006;2023-07-28T06:33:05;5.55;;;3.17;;
22223;SDS011;11281;52.194;21.006;2023-07-28T06:37:07;7.88;;;3.35;;
22223;SDS011;11281;52.194;21.006;2023-07-28T06:41:09;4.65;;;3.40;;
22223;SDS011;11281;52.194;21.006;2023-07-28T06:45:11;4.53;;;3.63;;
22223;SDS011;11281;52.194;21.006;2023-07-28T06:49:14;6.10;;;3.38;;
22223;SDS011;11281;52.194;21.006;2023-07-28T06:53:16;7.68;;;3.67;;
22223;SDS011;11281;52.194;21.006;2023-07-28T06:57:18;5.82;;;4.32;;
22223;SDS011;11281;52.194;21.006;2023-07-28T07:01:20;5.32;;;3.35;;
22223;SDS011;11281;52.194;21.006;2023-07-28T07:05:23;5.10;;;3.85;;
22223;SDS011;11281;52.194;21.006;2023-07-28T07:09:25;6.10;;;3.40;;
22223;SDS011;11281;52.194;21.006;2023-07-28T07:13:27;5.05;;;3.97;;
22223;SDS011;11281;52.194;21.006;2023-07-28T07:17:29;6.75;;;3.35;;
22223;SDS011;11281;52.194;21.006;2023-07-28T07:21:31;4.85;;;3.25;;
22223;SDS011;11281;52.194;21.006;2023-07-28T07:25:33;3.85;;;2.83;;
22223;SDS011;11281;52.194;21.006;2023-07-28T07:29:35;4.00;;;3.05;;
22223;SDS011;11281;52.194;21.006;2023-07-28T07:33:40;5.03;;;3.20;;
22223;SDS011;11281;52.194;21.006;2023-07-28T07:37:43;5.35;;;3.30;;
22223;SDS011;11281;52.194;21.006;2023-07-28T07:41:45;9.00;;;3.38;;
22223;SDS011;11281;52.194;21.006;2023-07-28T07:45:47;6.43;;;2.80;;
22223;SDS011;11281;52.194;21.006;2023-07-28T07:49:51;4.22;;;2.60;;
22223;SDS011;11281;52.194;21.006;2023-07-28T07:53:53;5.30;;;2.70;;
22223;SDS011;11281;52.194;21.006;2023-07-28T07:57:55;5.07;;;2.85;;
22223;SDS011;11281;52.194;21.006;2023-07-28T08:01:57;8.88;;;3.08;;
22223;SDS011;11281;52.194;21.006;2023-07-28T08:06:01;5.20;;;3.03;;
22223;SDS011;11281;52.194;21.006;2023-07-28T08:10:03;3.88;;;2.78;;
22223;SDS011;11281;52.194;21.006;2023-07-28T08:14:05;4.78;;;3.58;;
22223;SDS011;11281;52.194;21.006;2023-07-28T08:18:07;4.65;;;3.00;;
22223;SDS011;11281;52.194;21.006;2023-07-28T08:22:09;4.07;;;3.15;;
22223;SDS011;11281;52.194;21.006;2023-07-28T08:26:10;4.90;;;3.03;;
22223;SDS011;11281;52.194;21.006;2023-07-28T08:30:12;4.35;;;2.65;;
22223;SDS011;11281;52.194;21.006;2023-07-28T08:34:15;5.50;;;3.53;;
22223;SDS011;11281;52.194;21.006;2023-07-28T08:38:18;5.47;;;3.28;;
22223;SDS011;11281;52.194;21.006;2023-07-28T08:42:20;3.97;;;2.90;;
22223;SDS011;11281;52.194;21.006;2023-07-28T08:46:25;5.68;;;3.53;;
22223;SDS011;11281;52.194;21.006;2023-07-28T08:50:27;5.28;;;3.55;;
22223;SDS011;11281;52.194;21.006;2023-07-28T08:54:29;5.78;;;3.75;;
22223;SDS011;11281;52.194;21.006;2023-07-28T08:58:30;5.80;;;3.72;;
22223;SDS011;11281;52.194;21.006;2023-07-28T09:02:32;5.35;;;3.33;;
22223;SDS011;11281;52.194;21.006;2023-07-28T09:06:34;6.80;;;4.45;;
22223;SDS011;11281;52.194;21.006;2023-07-28T09:10:42;5.82;;;4.05;;
22223;SDS011;11281;52.194;21.006;2023-07-28T09:14:58;8.13;;;4.28;;
22223;SDS011;11281;52.194;21.006;2023-07-28T09:19:06;6.15;;;4.05;;
22223;SDS011;11281;52.194;21.006;2023-07-28T09:23:09;6.70;;;3.90;;
22223;SDS011;11281;52.194;21.006;2023-07-28T09:27:19;5.43;;;3.80;;
22223;SDS011;11281;52.194;21.006;2023-07-28T09:31:29;5.65;;;3.55;;
22223;SDS011;11281;52.194;21.006;2023-07-28T09:35:32;4.72;;;3.67;;
22223;SDS011;11281;52.194;21.006;2023-07-28T09:39:33;7.55;;;3.80;;
22223;SDS011;11281;52.194;21.006;2023-07-28T09:43:38;6.13;;;3.72;;
22223;SDS011;11281;52.194;21.006;2023-07-28T09:47:43;5.35;;;3.78;;
22223;SDS011;11281;52.194;21.006;2023-07-28T09:51:48;7.80;;;4.38;;
22223;SDS011;11281;52.194;21.006;2023-07-28T09:55:53;9.10;;;4.38;;
22223;SDS011;11281;52.194;21.006;2023-07-28T09:59:59;6.60;;;4.05;;
22223;SDS011;11281;52.194;21.006;2023-07-28T10:04:04;8.82;;;4.45;;
22223;SDS011;11281;52.194;21.006;2023-07-28T10:08:06;8.07;;;5.13;;
22223;SDS011;11281;52.194;21.006;2023-07-28T10:12:16;7.57;;;4.38;;
22223;SDS011;11281;52.194;21.006;2023-07-28T10:16:29;9.18;;;4.45;;
22223;SDS011;11281;52.194;21.006;2023-07-28T10:20:36;8.20;;;5.07;;
22223;SDS011;11281;52.194;21.006;2023-07-28T10:24:56;7.63;;;4.93;;
22223;SDS011;11281;52.194;21.006;2023-07-28T10:29:07;7.75;;;4.88;;
22223;SDS011;11281;52.194;21.006;2023-07-28T10:33:25;9.90;;;5.03;;
22223;SDS011;11281;52.194;21.006;2023-07-28T10:37:30;7.53;;;4.68;;
22223;SDS011;11281;52.194;21.006;2023-07-28T10:41:33;6.78;;;4.80;;
22223;SDS011;11281;52.194;21.006;2023-07-28T10:45:36;8.38;;;5.15;;
22223;SDS011;11281;52.194;21.006;2023-07-28T10:49:38;8.77;;;5.85;;
22223;SDS011;11281;52.194;21.006;2023-07-28T10:53:40;6.72;;;5.32;;
22223;SDS011;11281;52.194;21.006;2023-07-28T10:57:42;7.75;;;4.78;;
22223;SDS011;11281;52.194;21.006;2023-07-28T11:01:47;11.10;;;5.05;;
22223;SDS011;11281;52.194;21.006;2023-07-28T11:05:49;7.50;;;5.57;;
22223;SDS011;11281;52.194;21.006;2023-07-28T11:09:51;9.23;;;4.97;;
22223;SDS011;11281;52.194;21.006;2023-07-28T11:13:53;8.60;;;5.03;;
22223;SDS011;11281;52.194;21.006;2023-07-28T11:17:55;10.88;;;4.85;;
22223;SDS011;11281;52.194;21.006;2023-07-28T11:21:57;7.43;;;4.88;;
22223;SDS011;11281;52.194;21.006;2023-07-28T11:25:59;7.90;;;5.10;;
22223;SDS011;11281;52.194;21.006;2023-07-28T11:30:01;9.20;;;5.50;;
22223;SDS011;11281;52.194;21.006;2023-07-28T11:34:12;9.05;;;5.60;;
22223;SDS011;11281;52.194;21.006;2023-07-28T11:38:17;12.77;;;5.25;;
22223;SDS011;11281;52.194;21.006;2023-07-28T11:42:19;8.40;;;5.03;;
22223;SDS011;11281;52.194;21.006;2023-07-28T11:46:36;6.78;;;5.15;;
22223;SDS011;11281;52.194;21.006;2023-07-28T11:50:40;7.13;;;5.13;;
22223;SDS011;11281;52.194;21.006;2023-07-28T11:54:43;8.80;;;4.78;;
22223;SDS011;11281;52.194;21.006;2023-07-28T11:58:49;7.10;;;4.43;;
22223;SDS011;11281;52.194;21.006;2023-07-28T12:07:31;7.82;;;5.22;;
22223;SDS011;11281;52.194;21.006;2023-07-28T12:11:34;6.57;;;4.55;;
22223;SDS011;11281;52.194;21.006;2023-07-28T12:15:39;7.18;;;4.68;;
22223;SDS011;11281;52.194;21.006;2023-07-28T12:19:42;6.32;;;4.28;;
22223;SDS011;11281;52.194;21.006;2023-07-28T12:24:21;7.35;;;4.45;;
22223;SDS011;11281;52.194;21.006;2023-07-28T12:28:23;9.13;;;4.93;;
22223;SDS011;11281;52.194;21.006;2023-07-28T12:32:25;6.13;;;4.05;;
22223;SDS011;11281;52.194;21.006;2023-07-28T12:36:27;6.38;;;3.55;;
22223;SDS011;11281;52.194;21.006;2023-07-28T12:40:29;6.40;;;3.40;;
22223;SDS011;11281;52.194;21.006;2023-07-28T12:44:30;3.95;;;2.55;;
22223;SDS011;11281;52.194;21.006;2023-07-28T12:48:32;3.53;;;2.50;;
22223;SDS011;11281;52.194;21.006;2023-07-28T12:52:34;3.70;;;2.25;;
22223;SDS011;11281;52.194;21.006;2023-07-28T12:56:36;2.50;;;1.90;;
22223;SDS011;11281;52.194;21.006;2023-07-28T13:00:38;3.03;;;2.20;;
22223;SDS011;11281;52.194;21.006;2023-07-28T13:04:42;2.58;;;1.70;;
22223;SDS011;11281;52.194;21.006;2023-07-28T13:08:44;2.17;;;1.90;;
22223;SDS011;11281;52.194;21.006;2023-07-28T13:12:46;3.33;;;2.05;;
22223;SDS011;11281;52.194;21.006;2023-07-28T13:16:48;2.25;;;1.42;;
22223;SDS011;11281;52.194;21.006;2023-07-28T13:20:50;1.95;;;1.55;;
22223;SDS011;11281;52.194;21.006;2023-07-28T13:24:52;3.28;;;1.27;;
22223;SDS011;11281;52.194;21.006;2023-07-28T13:28:55;1.20;;;1.10;;
22223;SDS011;11281;52.194;21.006;2023-07-28T13:32:59;1.73;;;1.20;;
22223;SDS011;11281;52.194;21.006;2023-07-28T13:37:02;1.55;;;0.90;;
22223;SDS011;11281;52.194;21.006;2023-07-28T13:41:05;1.27;;;1.17;;
22223;SDS011;11281;52.194;21.006;2023-07-28T13:45:07;2.15;;;1.40;;
22223;SDS011;11281;52.194;21.006;2023-07-28T13:49:10;1.48;;;1.35;;
22223;SDS011;11281;52.194;21.006;2023-07-28T13:53:12;1.92;;;1.23;;
22223;SDS011;11281;52.194;21.006;2023-07-28T13:57:14;1.30;;;1.15;;
22223;SDS011;11281;52.194;21.006;2023-07-28T14:01:15;1.15;;;1.05;;
22223;SDS011;11281;52.194;21.006;2023-07-28T14:05:18;1.10;;;1.00;;
22223;SDS011;11281;52.194;21.006;2023-07-28T14:09:20;1.27;;;1.17;;
22223;SDS011;11281;52.194;21.006;2023-07-28T14:13:22;1.17;;;1.10;;
22223;SDS011;11281;52.194;21.006;2023-07-28T14:17:23;3.70;;;1.42;;
22223;SDS011;11281;52.194;21.006;2023-07-28T14:21:25;1.58;;;1.40;;
22223;SDS011;11281;52.194;21.006;2023-07-28T14:25:27;2.67;;;1.67;;
22223;SDS011;11281;52.194;21.006;2023-07-28T14:29:30;3.35;;;1.80;;
22223;SDS011;11281;52.194;21.006;2023-07-28T14:33:31;2.45;;;1.40;;
22223;SDS011;11281;52.194;21.006;2023-07-28T14:37:33;1.98;;;1.60;;
22223;SDS011;11281;52.194;21.006;2023-07-28T14:41:35;1.70;;;1.40;;
22223;SDS011;11281;52.194;21.006;2023-07-28T14:45:37;1.35;;;1.20;;
22223;SDS011;11281;52.194;21.006;2023-07-28T14:49:39;4.03;;;1.50;;
22223;SDS011;11281;52.194;21.006;2023-07-28T14:53:41;2.72;;;1.70;;
22223;SDS011;11281;52.194;21.006;2023-07-28T14:57:43;1.55;;;1.42;;
22223;SDS011;11281;52.194;21.006;2023-07-28T15:01:45;1.92;;;1.40;;
22223;SDS011;11281;52.194;21.006;2023-07-28T15:05:47;3.15;;;1.73;;
22223;SDS011;11281;52.194;21.006;2023-07-28T15:09:49;2.20;;;1.60;;
22223;SDS011;11281;52.194;21.006;2023-07-28T15:13:50;3.58;;;1.80;;
22223;SDS011;11281;52.194;21.006;2023-07-28T15:17:52;4.45;;;1.80;;
22223;SDS011;11281;52.194;21.006;2023-07-28T15:21:54;2.03;;;1.83;;
22223;SDS011;11281;52.194;21.006;2023-07-28T15:25:57;2.13;;;1.60;;
22223;SDS011;11281;52.194;21.006;2023-07-28T15:29:59;3.58;;;1.50;;
22223;SDS011;11281;52.194;21.006;2023-07-28T15:34:00;2.50;;;2.17;;
22223;SDS011;11281;52.194;21.006;2023-07-28T15:38:02;3.28;;;1.48;;
22223;SDS011;11281;52.194;21.006;2023-07-28T15:42:04;2.80;;;1.65;;
22223;SDS011;11281;52.194;21.006;2023-07-28T15:46:06;2.20;;;1.80;;
22223;SDS011;11281;52.194;21.006;2023-07-28T15:50:08;4.13;;;2.25;;
22223;SDS011;11281;52.194;21.006;2023-07-28T15:54:11;2.17;;;1.95;;
22223;SDS011;11281;52.194;21.006;2023-07-28T15:58:14;3.30;;;2.40;;
22223;SDS011;11281;52.194;21.006;2023-07-28T16:02:15;3.30;;;2.50;;
22223;SDS011;11281;52.194;21.006;2023-07-28T16:06:17;2.25;;;2.05;;
22223;SDS011;11281;52.194;21.006;2023-07-28T16:10:19;2.78;;;2.20;;
22223;SDS011;11281;52.194;21.006;2023-07-28T16:14:21;3.47;;;2.20;;
22223;SDS011;11281;52.194;21.006;2023-07-28T16:18:23;3.65;;;2.00;;
22223;SDS011;11281;52.194;21.006;2023-07-28T16:22:25;1.95;;;1.83;;
22223;SDS011;11281;52.194;21.006;2023-07-28T16:26:27;2.45;;;1.80;;
22223;SDS011;11281;52.194;21.006;2023-07-28T16:30:29;2.50;;;1.90;;
22223;SDS011;11281;52.194;21.006;2023-07-28T16:34:31;1.77;;;1.50;;
22223;SDS011;11281;52.194;21.006;2023-07-28T16:38:32;1.45;;;1.35;;
22223;SDS011;11281;52.194;21.006;2023-07-28T16:42:34;5.50;;;1.50;;
22223;SDS011;11281;52.194;21.006;2023-07-28T16:46:36;1.63;;;1.25;;
22223;SDS011;11281;52.194;21.006;2023-07-28T16:50:38;1.50;;;1.40;;
22223;SDS011;11281;52.194;21.006;2023-07-28T16:54:40;3.28;;;1.00;;
22223;SDS011;11281;52.194;21.006;2023-07-28T16:58:43;1.05;;;0.85;;
22223;SDS011;11281;52.194;21.006;2023-07-28T17:02:45;0.85;;;0.85;;
22223;SDS011;11281;52.194;21.006;2023-07-28T17:06:47;0.80;;;0.80;;
22223;SDS011;11281;52.194;21.006;2023-07-28T17:10:48;0.73;;;0.70;;
22223;SDS011;11281;52.194;21.006;2023-07-28T17:14:51;1.38;;;1.15;;
22223;SDS011;11281;52.194;21.006;2023-07-28T17:18:52;4.00;;;0.98;;
22223;SDS011;11281;52.194;21.006;2023-07-28T17:22:54;1.08;;;0.98;;
22223;SDS011;11281;52.194;21.006;2023-07-28T17:26:56;1.55;;;0.90;;
22223;SDS011;11281;52.194;21.006;2023-07-28T17:30:58;1.05;;;0.80;;
22223;SDS011;11281;52.194;21.006;2023-07-28T17:35:00;1.38;;;1.00;;
22223;SDS011;11281;52.194;21.006;2023-07-28T17:39:02;1.02;;;1.02;;
22223;SDS011;11281;52.194;21.006;2023-07-28T17:43:04;3.67;;;1.60;;
22223;SDS011;11281;52.194;21.006;2023-07-28T17:47:06;2.63;;;0.98;;
22223;SDS011;11281;52.194;21.006;2023-07-28T17:51:08;1.00;;;1.00;;
22223;SDS011;11281;52.194;21.006;2023-07-28T17:55:11;2.55;;;1.00;;
22223;SDS011;11281;52.194;21.006;2023-07-28T17:59:12;2.15;;;1.42;;
22223;SDS011;11281;52.194;21.006;2023-07-28T18:03:14;1.17;;;1.08;;
22223;SDS011;11281;52.194;21.006;2023-07-28T18:07:16;4.80;;;1.20;;
22223;SDS011;11281;52.194;21.006;2023-07-28T18:11:18;1.70;;;0.93;;
22223;SDS011;11281;52.194;21.006;2023-07-28T18:15:20;1.20;;;1.10;;
22223;SDS011;11281;52.194;21.006;2023-07-28T18:19:22;4.18;;;1.40;;
22223;SDS011;11281;52.194;21.006;2023-07-28T18:23:24;2.35;;;1.20;;
22223;SDS011;11281;52.194;21.006;2023-07-28T18:27:26;2.17;;;1.40;;
22223;SDS011;11281;52.194;21.006;2023-07-28T18:31:27;1.20;;;1.10;;
22223;SDS011;11281;52.194;21.006;2023-07-28T18:35:29;1.95;;;1.23;;
22223;SDS011;11281;52.194;21.006;2023-07-28T18:39:31;1.65;;;1.33;;
22223;SDS011;11281;52.194;21.006;2023-07-28T18:43:34;1.58;;;1.42;;
22223;SDS011;11281;52.194;21.006;2023-07-28T18:47:36;1.95;;;1.50;;
22223;SDS011;11281;52.194;21.006;2023-07-28T18:51:38;3.13;;;1.42;;
22223;SDS011;11281;52.194;21.006;2023-07-28T18:55:39;1.52;;;1.20;;
22223;SDS011;11281;52.194;21.006;2023-07-28T18:59:42;2.00;;;1.40;;
22223;SDS011;11281;52.194;21.006;2023-07-28T19:03:43;1.38;;;1.27;;
22223;SDS011;11281;52.194;21.006;2023-07-28T19:07:45;5.57;;;1.80;;
22223;SDS011;11281;52.194;21.006;2023-07-28T19:11:46;3.40;;;1.70;;
22223;SDS011;11281;52.194;21.006;2023-07-28T19:15:48;3.13;;;1.40;;
22223;SDS011;11281;52.194;21.006;2023-07-28T19:19:50;1.42;;;1.33;;
22223;SDS011;11281;52.194;21.006;2023-07-28T19:23:51;1.90;;;1.70;;
22223;SDS011;11281;52.194;21.006;2023-07-28T19:27:53;3.15;;;1.70;;
22223;SDS011;11281;52.194;21.006;2023-07-28T19:31:56;3.50;;;1.73;;
22223;SDS011;11281;52.194;21.006;2023-07-28T19:35:59;2.63;;;2.08;;
22223;SDS011;11281;52.194;21.006;2023-07-28T19:40:02;3.20;;;1.67;;
22223;SDS011;11281;52.194;21.006;2023-07-28T19:44:04;5.43;;;1.85;;
22223;SDS011;11281;52.194;21.006;2023-07-28T19:48:06;3.10;;;1.98;;
22223;SDS011;11281;52.194;21.006;2023-07-28T19:52:09;2.58;;;2.15;;
22223;SDS011;11281;52.194;21.006;2023-07-28T19:56:11;4.63;;;2.15;;
22223;SDS011;11281;52.194;21.006;2023-07-28T20:00:12;2.38;;;2.13;;
22223;SDS011;11281;52.194;21.006;2023-07-28T20:04:14;2.72;;;2.20;;
22223;SDS011;11281;52.194;21.006;2023-07-28T20:08:16;5.18;;;2.42;;
22223;SDS011;11281;52.194;21.006;2023-07-28T20:12:18;3.53;;;2.85;;
22223;SDS011;11281;52.194;21.006;2023-07-28T20:16:20;3.35;;;2.60;;
22223;SDS011;11281;52.194;21.006;2023-07-28T20:20:22;3.08;;;2.47;;
22223;SDS011;11281;52.194;21.006;2023-07-28T20:24:24;2.78;;;2.47;;
22223;SDS011;11281;52.194;21.006;2023-07-28T20:28:26;5.80;;;2.83;;
22223;SDS011;11281;52.194;21.006;2023-07-28T20:32:28;4.88;;;2.83;;
22223;SDS011;11281;52.194;21.006;2023-07-28T20:36:29;4.00;;;2.60;;
22223;SDS011;11281;52.194;21.006;2023-07-28T20:40:31;5.40;;;2.78;;
22223;SDS011;11281;52.194;21.006;2023-07-28T20:44:33;3.50;;;2.72;;
22223;SDS011;11281;52.194;21.006;2023-07-28T20:48:35;3.65;;;2.60;;
22223;SDS011;11281;52.194;21.006;2023-07-28T20:52:37;3.33;;;2.58;;
22223;SDS011;11281;52.194;21.006;2023-07-28T20:56:39;3.08;;;2.42;;
22223;SDS011;11281;52.194;21.006;2023-07-28T21:00:41;6.00;;;3.15;;
22223;SDS011;11281;52.194;21.006;2023-07-28T21:04:43;5.13;;;3.28;;
22223;SDS011;11281;52.194;21.006;2023-07-28T21:08:45;4.65;;;3.00;;
22223;SDS011;11281;52.194;21.006;2023-07-28T21:12:47;2.90;;;2.40;;
22223;SDS011;11281;52.194;21.006;2023-07-28T21:16:49;4.93;;;3.33;;
22223;SDS011;11281;52.194;21.006;2023-07-28T21:20:51;5.53;;;3.63;;
22223;SDS011;11281;52.194;21.006;2023-07-28T21:24:54;5.45;;;3.05;;
22223;SDS011;11281;52.194;21.006;2023-07-28T21:28:56;3.90;;;3.28;;
22223;SDS011;11281;52.194;21.006;2023-07-28T21:33:02;4.88;;;3.53;;
22223;SDS011;11281;52.194;21.006;2023-07-28T21:37:05;4.32;;;3.63;;
22223;SDS011;11281;52.194;21.006;2023-07-28T21:41:06;5.18;;;3.72;;
22223;SDS011;11281;52.194;21.006;2023-07-28T21:45:08;7.95;;;4.03;;
22223;SDS011;11281;52.194;21.006;2023-07-28T21:49:10;4.18;;;3.22;;
22223;SDS011;11281;52.194;21.006;2023-07-28T21:53:12;6.63;;;3.50;;
22223;SDS011;11281;52.194;21.006;2023-07-28T21:57:14;6.55;;;4.13;;
22223;SDS011;11281;52.194;21.006;2023-07-28T22:01:16;5.75;;;4.10;;
22223;SDS011;11281;52.194;21.006;2023-07-28T22:05:18;7.55;;;3.65;;
22223;SDS011;11281;52.194;21.006;2023-07-28T22:09:20;7.55;;;3.95;;
22223;SDS011;11281;52.194;21.006;2023-07-28T22:13:23;5.05;;;4.05;;
22223;SDS011;11281;52.194;21.006;2023-07-28T22:17:25;5.68;;;4.00;;
22223;SDS011;11281;52.194;21.006;2023-07-28T22:21:27;6.03;;;4.28;;
22223;SDS011;11281;52.194;21.006;2023-07-28T22:25:29;5.40;;;4.40;;
22223;SDS011;11281;52.194;21.006;2023-07-28T22:29:30;8.02;;;4.20;;
22223;SDS011;11281;52.194;21.006;2023-07-28T22:33:32;7.45;;;4.00;;
22223;SDS011;11281;52.194;21.006;2023-07-28T22:37:34;6.40;;;3.72;;
22223;SDS011;11281;52.194;21.006;2023-07-28T22:41:36;5.22;;;3.75;;
22223;SDS011;11281;52.194;21.006;2023-07-28T22:45:38;5.57;;;3.70;;
22223;SDS011;11281;52.194;21.006;2023-07-28T22:49:41;5.97;;;3.90;;
22223;SDS011;11281;52.194;21.006;2023-07-28T22:53:42;6.10;;;3.78;;
22223;SDS011;11281;52.194;21.006;2023-07-28T22:57:44;7.15;;;3.78;;
22223;SDS011;11281;52.194;21.006;2023-07-28T23:01:45;6.28;;;3.15;;
22223;SDS011;11281;52.194;21.006;2023-07-28T23:05:47;6.22;;;3.95;;
22223;SDS011;11281;52.194;21.006;2023-07-28T23:09:49;5.82;;;3.60;;
22223;SDS011;11281;52.194;21.006;2023-07-28T23:13:51;6.85;;;4.30;;
22223;SDS011;11281;52.194;21.006;2023-07-28T23:17:53;5.63;;;3.55;;
22223;SDS011;11281;52.194;21.006;2023-07-28T23:21:55;4.40;;;3.63;;
22223;SDS011;11281;52.194;21.006;2023-07-28T23:25:57;5.93;;;4.10;;
22223;SDS011;11281;52.194;21.006;2023-07-28T23:29:59;6.45;;;4.57;;
22223;SDS011;11281;52.194;21.006;2023-07-28T23:34:01;7.22;;;4.38;;
22223;SDS011;11281;52.194;21.006;2023-07-28T23:38:04;10.00;;;4.18;;
22223;SDS011;11281;52.194;21.006;2023-07-28T23:42:06;5.90;;;4.05;;
22223;SDS011;11281;52.194;21.006;2023-07-28T23:46:08;5.95;;;3.70;;
22223;SDS011;11281;52.194;21.006;2023-07-28T23:50:10;10.07;;;3.90;;
22223;SDS011;11281;52.194;21.006;2023-07-28T23:54:12;6.50;;;3.80;;
22223;SDS011;11281;52.194;21.006;2023-07-28T23:58:17;7.18;;;3.95;;
